Time;durP1;ratioP1;P1;durP2;ratioP2;P2;SDS_P1;SDS_P2;PMS_P1;PMS_P2;Temp;Humidity;BMP_temperature;BMP_pressure;BME280_temperature;BME280_humidity;BME280_pressure;Samples;Min_cycle;Max_cycle;Signal;HPM_P1;HPM_P2
2021/11/04 00:00:10;;;;;;;;;;;6.50;96.30;;;;;;5031915;28;20003;-80
2021/11/04 00:02:35;;;;;;;;;;;6.50;96.30;;;;;;5035365;28;19917;-80
2021/11/04 00:05:01;;;;;;;;;;;6.60;96.40;;;;;;5028009;28;19936;-80
2021/11/04 00:07:27;;;;;;;;;;;6.60;96.30;;;;;;5033801;28;19914;-81
2021/11/04 00:09:52;;;;;;;;;;;6.60;96.30;;;;;;5034729;28;19971;-80
2021/11/04 00:12:18;;;;;;;;;;;6.70;96.30;;;;;;5034102;28;19920;-80
2021/11/04 00:14:44;;;;;;;;;;;6.70;96.20;;;;;;5035224;28;19920;-80
2021/11/04 00:17:09;;;;;;;;;;;6.80;96.20;;;;;;5034802;28;20378;-81
2021/11/04 00:19:35;;;;;;;;;;;6.80;96.10;;;;;;5026386;28;19929;-80
2021/11/04 00:22:01;;;;;;;;;;;6.80;96.10;;;;;;5034986;28;19987;-80
2021/11/04 00:24:26;;;;;;;;;;;6.80;96.00;;;;;;5034673;28;20004;-81
2021/11/04 00:26:52;;;;;;;;;;;6.70;95.90;;;;;;5027069;28;19917;-80
2021/11/04 00:29:17;;;;;;;;;;;6.60;96.00;;;;;;5034799;28;19913;-80
2021/11/04 00:31:42;;;;;;;;;;;6.60;96.20;;;;;;5034781;28;19975;-81
2021/11/04 00:34:08;;;;;;;;;;;6.60;96.20;;;;;;5026613;28;19920;-81
2021/11/04 00:36:33;;;;;;;;;;;6.60;96.10;;;;;;5033804;28;19919;-80
2021/11/04 00:38:59;;;;;;;;;;;6.40;96.00;;;;;;5026757;28;19928;-80
2021/11/04 00:41:24;;;;;;;;;;;6.40;96.20;;;;;;5025343;28;19914;-80
2021/11/04 00:43:50;;;;;;;;;;;6.30;96.30;;;;;;5034188;28;19914;-81
2021/11/04 00:46:15;;;;;;;;;;;6.20;96.30;;;;;;5034530;28;19913;-80
2021/11/04 00:48:41;;;;;;;;;;;6.20;96.30;;;;;;5024974;28;19913;-80
2021/11/04 00:51:06;;;;;;;;;;;6.20;96.50;;;;;;5027595;28;20044;-80
2021/11/04 00:53:32;;;;;;;;;;;6.30;96.50;;;;;;5034413;28;20395;-81
2021/11/04 00:56:00;;;;;;;;;;;6.40;96.50;;;;;;5026398;28;19921;-82
2021/11/04 00:58:25;;;;;;;;;;;6.40;96.40;;;;;;5034411;28;19921;-81
2021/11/04 01:00:51;;;;;;;;;;;6.50;96.20;;;;;;5032599;28;19921;-82
2021/11/04 01:03:16;;;;;;;;;;;6.50;96.10;;;;;;5027817;28;19913;-81
2021/11/04 01:05:42;;;;;;;;;;;6.50;96.10;;;;;;5033867;28;19917;-81
2021/11/04 01:08:08;;;;;;;;;;;6.40;96.10;;;;;;5029601;28;19941;-82
2021/11/04 01:10:33;;;;;;;;;;;6.50;96.20;;;;;;5029883;28;19913;-82
2021/11/04 01:12:59;;;;;;;;;;;6.40;96.10;;;;;;5033792;28;19953;-81
2021/11/04 01:15:25;;;;;;;;;;;6.30;96.00;;;;;;5028937;28;19921;-81
2021/11/04 01:17:50;;;;;;;;;;;6.30;96.20;;;;;;5030228;28;19921;-80
2021/11/04 01:20:17;;;;;;;;;;;6.20;96.10;;;;;;5034039;28;19956;-81
2021/11/04 01:22:42;;;;;;;;;;;6.20;96.30;;;;;;5026869;28;19918;-81
2021/11/04 01:25:08;;;;;;;;;;;6.20;96.30;;;;;;5032770;28;19913;-81
2021/11/04 01:27:33;;;;;;;;;;;6.30;96.40;;;;;;5034095;28;20305;-81
2021/11/04 01:29:59;;;;;;;;;;;6.30;96.30;;;;;;5025422;28;19913;-81
2021/11/04 01:32:25;;;;;;;;;;;6.40;96.30;;;;;;5033461;28;19913;-81
2021/11/04 01:34:51;;;;;;;;;;;6.40;96.20;;;;;;5033891;28;19920;-81
2021/11/04 01:37:16;;;;;;;;;;;6.50;96.20;;;;;;5032627;28;19922;-82
2021/11/04 01:39:41;;;;;;;;;;;6.50;96.10;;;;;;5033642;28;19925;-81
2021/11/04 01:42:07;;;;;;;;;;;6.50;96.10;;;;;;5032456;28;20365;-82
2021/11/04 01:44:33;;;;;;;;;;;6.60;96.10;;;;;;5018940;28;20273;-82
2021/11/04 01:46:58;;;;;;;;;;;6.60;96.00;;;;;;5033029;28;19913;-82
2021/11/04 01:49:24;;;;;;;;;;;6.50;96.00;;;;;;5033233;28;19928;-82
2021/11/04 01:51:50;;;;;;;;;;;6.50;96.10;;;;;;5025518;28;19917;-81
2021/11/04 01:54:15;;;;;;;;;;;6.50;96.10;;;;;;5031720;28;19920;-82
2021/11/04 01:56:41;;;;;;;;;;;6.50;96.20;;;;;;5027178;28;19913;-83
2021/11/04 01:59:06;;;;;;;;;;;6.50;96.10;;;;;;5025404;28;19955;-83
2021/11/04 02:01:32;;;;;;;;;;;6.50;96.40;;;;;;5032782;28;19917;-82
2021/11/04 02:04:16;;;;;;;;;;;6.50;96.10;;;;;;5025651;28;19913;-82
2021/11/04 02:06:51;;;;;;;;;;;6.60;96.20;;;;;;5014985;28;19913;-83
2021/11/04 02:09:27;;;;;;;;;;;6.70;96.20;;;;;;5021983;28;19913;-82
2021/11/04 02:11:56;;;;;;;;;;;6.70;96.20;;;;;;5033404;28;19913;-82
2021/11/04 02:14:31;;;;;;;;;;;6.70;96.10;;;;;;5015700;28;20297;-82
2021/11/04 02:16:58;;;;;;;;;;;6.80;96.00;;;;;;5027754;28;19981;-82
2021/11/04 02:19:41;;;;;;;;;;;6.80;96.00;;;;;;5029266;28;19928;-82
2021/11/04 02:22:12;;;;;;;;;;;6.80;96.00;;;;;;5028549;28;19920;-82
2021/11/04 02:24:40;;;;;;;;;;;6.80;96.10;;;;;;5023632;28;19952;-82
2021/11/04 02:27:07;;;;;;;;;;;6.90;96.10;;;;;;5025111;28;19913;-83
2021/11/04 02:29:33;;;;;;;;;;;6.90;96.00;;;;;;5032114;28;19987;-82
2021/11/04 02:31:59;;;;;;;;;;;6.90;96.00;;;;;;5032945;28;20377;-82
2021/11/04 02:34:24;;;;;;;;;;;6.90;96.00;;;;;;5025346;28;19952;-83
2021/11/04 02:36:50;;;;;;;;;;;6.80;96.00;;;;;;5032719;28;19919;-83
2021/11/04 02:39:16;;;;;;;;;;;6.90;96.00;;;;;;5032362;28;19925;-82
2021/11/04 02:41:42;;;;;;;;;;;6.80;96.00;;;;;;5024828;28;19913;-82
2021/11/04 02:44:10;;;;;;;;;;;6.80;96.10;;;;;;5032632;28;19951;-83
2021/11/04 02:46:36;;;;;;;;;;;6.80;96.10;;;;;;5032476;28;19980;-82
2021/11/04 02:49:02;;;;;;;;;;;6.80;96.10;;;;;;5025331;28;19913;-83
2021/11/04 02:51:28;;;;;;;;;;;6.90;96.00;;;;;;5025453;28;20274;-82
2021/11/04 02:53:54;;;;;;;;;;;6.90;96.00;;;;;;5029838;28;19914;-82
2021/11/04 02:56:19;;;;;;;;;;;6.90;96.10;;;;;;5027628;28;20345;-82
2021/11/04 02:58:44;;;;;;;;;;;6.90;96.00;;;;;;5031869;28;20278;-82
2021/11/04 03:01:10;;;;;;;;;;;6.90;96.00;;;;;;5031859;28;19913;-82
2021/11/04 03:03:35;;;;;;;;;;;7.00;96.00;;;;;;5032778;28;19920;-82
2021/11/04 03:06:01;;;;;;;;;;;7.00;96.00;;;;;;5035158;28;19921;-82
2021/11/04 03:08:27;;;;;;;;;;;7.00;96.00;;;;;;5036227;28;19985;-82
2021/11/04 03:10:53;;;;;;;;;;;7.10;95.90;;;;;;5028418;28;20010;-82
2021/11/04 03:13:18;;;;;;;;;;;7.00;96.00;;;;;;5031891;28;20015;-82
2021/11/04 03:15:46;;;;;;;;;;;7.00;96.00;;;;;;5024212;28;19913;-81
2021/11/04 03:18:12;;;;;;;;;;;7.10;96.00;;;;;;5025472;28;19922;-82
2021/11/04 03:20:38;;;;;;;;;;;7.10;96.00;;;;;;5031978;28;19920;-82
2021/11/04 03:23:04;;;;;;;;;;;7.10;95.90;;;;;;5026154;28;20011;-82
2021/11/04 03:25:30;;;;;;;;;;;7.20;95.90;;;;;;5030334;28;20365;-82
2021/11/04 03:27:56;;;;;;;;;;;7.20;95.90;;;;;;5034941;28;19930;-82
2021/11/04 03:30:23;;;;;;;;;;;7.20;95.90;;;;;;5029098;28;19913;-82
2021/11/04 03:32:49;;;;;;;;;;;7.30;95.90;;;;;;5036042;28;20431;-83
2021/11/04 03:35:15;;;;;;;;;;;7.30;95.80;;;;;;5032961;28;21058;-82
2021/11/04 03:37:43;;;;;;;;;;;7.30;95.90;;;;;;5030899;28;19921;-82
2021/11/04 03:40:09;;;;;;;;;;;7.30;95.90;;;;;;5027348;28;20419;-82
2021/11/04 03:42:34;;;;;;;;;;;7.40;95.90;;;;;;5035145;28;19913;-83
2021/11/04 03:45:00;;;;;;;;;;;7.40;95.90;;;;;;5027926;28;19936;-83
2021/11/04 03:47:30;;;;;;;;;;;7.40;95.80;;;;;;5035905;28;19917;-83
2021/11/04 03:49:56;;;;;;;;;;;7.50;95.80;;;;;;5035583;28;19959;-82
2021/11/04 03:52:22;;;;;;;;;;;7.50;95.70;;;;;;5026476;28;19921;-82
2021/11/04 03:54:48;;;;;;;;;;;7.50;95.80;;;;;;5035525;28;20384;-82
2021/11/04 03:57:14;;;;;;;;;;;7.50;95.80;;;;;;5027117;28;20000;-82
2021/11/04 03:59:40;;;;;;;;;;;7.50;95.70;;;;;;5031611;28;19921;-82
2021/11/04 04:02:08;;;;;;;;;;;7.50;95.80;;;;;;5024380;28;20000;-83
2021/11/04 04:04:34;;;;;;;;;;;7.50;95.80;;;;;;5024624;28;20377;-83
2021/11/04 04:06:59;;;;;;;;;;;7.50;95.80;;;;;;5031283;28;19980;-82
2021/11/04 04:09:25;;;;;;;;;;;7.60;95.90;;;;;;5033158;28;20365;-82
2021/11/04 04:11:53;;;;;;;;;;;7.60;95.80;;;;;;5029796;28;19917;-83
2021/11/04 04:14:18;;;;;;;;;;;7.60;95.80;;;;;;5032567;28;19964;-82
2021/11/04 04:16:44;;;;;;;;;;;7.60;95.80;;;;;;5033865;28;19967;-83
2021/11/04 04:19:10;;;;;;;;;;;7.60;95.80;;;;;;5027473;28;20392;-82
2021/11/04 04:21:36;;;;;;;;;;;7.70;95.80;;;;;;5035004;28;20340;-82
2021/11/04 04:24:02;;;;;;;;;;;7.70;95.90;;;;;;5035150;28;19913;-83
2021/11/04 04:26:27;;;;;;;;;;;7.70;95.90;;;;;;5026501;28;19936;-83
2021/11/04 04:28:53;;;;;;;;;;;7.70;95.80;;;;;;5035095;28;19924;-82
2021/11/04 04:31:18;;;;;;;;;;;7.70;95.80;;;;;;5034938;28;20352;-82
2021/11/04 04:33:44;;;;;;;;;;;7.70;95.80;;;;;;5026785;28;20365;-82
2021/11/04 04:36:09;;;;;;;;;;;7.70;95.80;;;;;;5034984;28;20285;-83
2021/11/04 04:38:35;;;;;;;;;;;7.80;95.80;;;;;;5032762;28;19921;-82
2021/11/04 04:41:01;;;;;;;;;;;7.80;95.80;;;;;;5027847;28;20381;-83
2021/11/04 04:43:26;;;;;;;;;;;7.80;95.80;;;;;;5034904;28;19920;-82
2021/11/04 04:45:52;;;;;;;;;;;7.70;95.80;;;;;;5031557;28;19925;-83
2021/11/04 04:48:17;;;;;;;;;;;7.70;95.90;;;;;;5022140;28;20266;-83
2021/11/04 04:50:43;;;;;;;;;;;7.70;95.90;;;;;;5034392;28;19924;-83
2021/11/04 04:53:08;;;;;;;;;;;7.70;95.90;;;;;;5030368;28;19968;-83
2021/11/04 04:55:34;;;;;;;;;;;7.70;95.90;;;;;;5031036;28;19913;-83
2021/11/04 04:58:00;;;;;;;;;;;7.80;95.90;;;;;;5034785;28;19929;-84
2021/11/04 05:00:25;;;;;;;;;;;7.80;96.20;;;;;;5028105;28;20353;-83
2021/11/04 05:02:51;;;;;;;;;;;7.80;95.80;;;;;;5022696;28;19920;-84
2021/11/04 05:05:16;;;;;;;;;;;7.80;95.80;;;;;;5028412;28;19953;-83
2021/11/04 05:07:42;;;;;;;;;;;7.70;95.70;;;;;;5033768;28;19917;-82
2021/11/04 05:10:08;;;;;;;;;;;7.60;95.90;;;;;;5033752;28;19914;-82
2021/11/04 05:12:34;;;;;;;;;;;7.60;95.90;;;;;;5034353;28;20012;-83
2021/11/04 05:14:59;;;;;;;;;;;7.60;95.90;;;;;;5025713;28;19960;-82
2021/11/04 05:17:25;;;;;;;;;;;7.50;95.90;;;;;;5034002;28;20377;-81
2021/11/04 05:19:50;;;;;;;;;;;7.40;96.00;;;;;;5025893;28;19975;-81
2021/11/04 05:22:16;;;;;;;;;;;7.40;96.10;;;;;;5026304;28;19913;-81
2021/11/04 05:24:41;;;;;;;;;;;7.40;96.10;;;;;;5033550;28;19913;-81
2021/11/04 05:27:06;;;;;;;;;;;7.40;96.20;;;;;;5033385;28;19948;-82
2021/11/04 05:29:32;;;;;;;;;;;7.40;96.10;;;;;;5027615;28;19918;-81
2021/11/04 05:31:58;;;;;;;;;;;7.50;96.10;;;;;;5031157;28;19920;-82
2021/11/04 05:34:24;;;;;;;;;;;7.50;96.10;;;;;;5033743;28;19920;-82
2021/11/04 05:36:49;;;;;;;;;;;7.50;96.10;;;;;;5026009;28;20285;-82
2021/11/04 05:39:15;;;;;;;;;;;7.50;96.00;;;;;;5031058;28;19929;-82
2021/11/04 05:41:40;;;;;;;;;;;7.60;96.00;;;;;;5033979;28;19917;-82
2021/11/04 05:44:06;;;;;;;;;;;7.50;96.00;;;;;;5025408;28;19979;-83
2021/11/04 05:46:31;;;;;;;;;;;7.50;95.90;;;;;;5033922;28;19935;-83
2021/11/04 05:48:57;;;;;;;;;;;7.50;95.90;;;;;;5033791;28;19913;-83
2021/11/04 05:51:22;;;;;;;;;;;7.50;96.00;;;;;;5022586;28;20042;-82
2021/11/04 05:53:47;;;;;;;;;;;7.50;96.10;;;;;;5028310;28;20000;-81
2021/11/04 05:56:13;;;;;;;;;;;7.50;96.10;;;;;;5031909;28;19914;-82
2021/11/04 05:58:38;;;;;;;;;;;7.50;96.00;;;;;;5018726;28;20443;-82
2021/11/04 06:01:04;;;;;;;;;;;7.50;95.90;;;;;;5031619;28;19959;-81
2021/11/04 06:03:29;;;;;;;;;;;7.50;95.90;;;;;;5033266;28;19920;-83
2021/11/04 06:05:55;;;;;;;;;;;7.50;96.00;;;;;;5024497;28;19917;-81
2021/11/04 06:08:20;;;;;;;;;;;7.60;96.00;;;;;;5032511;28;19936;-81
2021/11/04 06:10:46;;;;;;;;;;;7.50;95.90;;;;;;5033125;28;20377;-81
2021/11/04 06:13:11;;;;;;;;;;;7.50;95.80;;;;;;5025116;28;19921;-84
2021/11/04 06:15:37;;;;;;;;;;;7.50;95.90;;;;;;5033405;28;20006;-82
2021/11/04 06:18:02;;;;;;;;;;;7.50;96.00;;;;;;5031614;28;19932;-82
2021/11/04 06:20:29;;;;;;;;;;;7.50;95.90;;;;;;5025626;28;19913;-78
2021/11/04 06:22:55;;;;;;;;;;;7.50;95.90;;;;;;5032817;28;20007;-80
2021/11/04 06:25:20;;;;;;;;;;;7.40;96.00;;;;;;5029602;28;20012;-79
2021/11/04 06:27:46;;;;;;;;;;;7.50;96.00;;;;;;5031417;28;20000;-80
2021/11/04 06:30:11;;;;;;;;;;;7.50;95.90;;;;;;5024468;28;19913;-80
2021/11/04 06:32:37;;;;;;;;;;;7.50;95.90;;;;;;5027936;28;19920;-78
2021/11/04 06:35:03;;;;;;;;;;;7.40;95.90;;;;;;5028045;28;19917;-80
2021/11/04 06:37:29;;;;;;;;;;;7.40;95.90;;;;;;5032810;28;19963;-81
2021/11/04 06:39:54;;;;;;;;;;;7.40;95.90;;;;;;5032641;28;19964;-81
2021/11/04 06:42:20;;;;;;;;;;;7.50;96.00;;;;;;5035494;28;19920;-80
2021/11/04 06:44:45;;;;;;;;;;;7.50;95.90;;;;;;5028904;28;19967;-80
2021/11/04 06:47:22;;;;;;;;;;;7.40;95.80;;;;;;5036097;28;19913;-79
2021/11/04 06:49:49;;;;;;;;;;;7.30;95.80;;;;;;5036396;28;20004;-80
2021/11/04 06:52:16;;;;;;;;;;;7.30;96.00;;;;;;5027345;28;19936;-81
2021/11/04 06:54:42;;;;;;;;;;;7.30;96.00;;;;;;5027298;28;19913;-80
2021/11/04 06:57:12;;;;;;;;;;;7.30;96.00;;;;;;5036505;28;19913;-81
2021/11/04 06:59:40;;;;;;;;;;;7.30;96.00;;;;;;5020983;28;19983;-80
2021/11/04 07:02:05;;;;;;;;;;;7.30;96.00;;;;;;5028533;28;19913;-81
2021/11/04 07:04:33;;;;;;;;;;;7.30;96.00;;;;;;5035337;28;19920;-80
2021/11/04 07:07:07;;;;;;;;;;;7.40;96.00;;;;;;5035669;28;19917;-81
2021/11/04 07:09:34;;;;;;;;;;;7.40;96.00;;;;;;5035068;28;20389;-81
2021/11/04 07:12:00;;;;;;;;;;;7.40;95.90;;;;;;5029024;28;19920;-82
2021/11/04 07:14:27;;;;;;;;;;;7.40;96.00;;;;;;5035922;28;19913;-76
2021/11/04 07:16:53;;;;;;;;;;;7.40;95.90;;;;;;5031086;28;19961;-77
2021/11/04 07:19:20;;;;;;;;;;;7.40;95.90;;;;;;5032435;28;20403;-77
2021/11/04 07:21:52;;;;;;;;;;;7.40;95.90;;;;;;5036027;28;19913;-77
2021/11/04 07:24:31;;;;;;;;;;;7.40;95.80;;;;;;5026754;28;20317;-78
2021/11/04 07:27:05;;;;;;;;;;;7.30;95.90;;;;;;5036437;28;19913;-86
2021/11/04 07:29:33;;;;;;;;;;;7.30;96.00;;;;;;5027386;28;19956;-86
2021/11/04 07:31:58;;;;;;;;;;;7.30;95.90;;;;;;5031282;28;19913;-86
2021/11/04 07:34:24;;;;;;;;;;;7.30;96.00;;;;;;5031511;28;19936;-85
2021/11/04 07:36:50;;;;;;;;;;;7.30;96.10;;;;;;5028808;28;19924;-84
2021/11/04 07:39:15;;;;;;;;;;;7.30;96.00;;;;;;5036396;28;20008;-86
2021/11/04 07:41:41;;;;;;;;;;;7.30;96.00;;;;;;5028972;28;20649;-86
2021/11/04 07:44:06;;;;;;;;;;;7.30;96.00;;;;;;5036696;28;20277;-87
2021/11/04 07:46:32;;;;;;;;;;;7.40;96.10;;;;;;5027661;28;20046;-86
2021/11/04 07:48:59;;;;;;;;;;;7.40;96.10;;;;;;5021822;28;19913;-86
2021/11/04 07:51:25;;;;;;;;;;;7.40;95.90;;;;;;5035146;28;19920;-86
2021/11/04 07:53:51;;;;;;;;;;;7.30;95.90;;;;;;5028555;28;20341;-87
2021/11/04 07:56:16;;;;;;;;;;;7.30;96.00;;;;;;5029275;28;19913;-86
2021/11/04 07:58:42;;;;;;;;;;;7.30;96.00;;;;;;5032954;28;19968;-86
2021/11/04 08:01:07;;;;;;;;;;;7.20;96.00;;;;;;5023104;28;19913;-86
2021/11/04 08:03:33;;;;;;;;;;;7.20;96.10;;;;;;5026882;28;19921;-86
2021/11/04 08:05:58;;;;;;;;;;;7.20;96.10;;;;;;5029203;28;20003;-85
2021/11/04 08:08:24;;;;;;;;;;;7.20;96.10;;;;;;5035704;28;19913;-86
2021/11/04 08:10:53;;;;;;;;;;;7.30;96.20;;;;;;5028136;28;19914;-87
2021/11/04 08:13:18;;;;;;;;;;;7.40;96.20;;;;;;5035944;28;19999;-87
2021/11/04 08:15:44;;;;;;;;;;;7.50;96.10;;;;;;5033979;28;19944;-82
2021/11/04 08:18:10;;;;;;;;;;;7.70;96.10;;;;;;5023822;28;19922;-82
2021/11/04 08:20:36;;;;;;;;;;;7.80;96.00;;;;;;5032208;28;19913;-81
2021/11/04 08:23:06;;;;;;;;;;;8.00;96.00;;;;;;5031292;28;19913;-81
2021/11/04 08:25:32;;;;;;;;;;;8.10;95.90;;;;;;5024147;28;19968;-83
2021/11/04 08:27:57;;;;;;;;;;;8.20;95.90;;;;;;5034682;28;19920;-83
2021/11/04 08:30:24;;;;;;;;;;;8.20;95.80;;;;;;5034922;28;19917;-84
2021/11/04 08:32:50;;;;;;;;;;;8.20;95.80;;;;;;5025209;28;20380;-82
2021/11/04 08:35:15;;;;;;;;;;;8.20;95.80;;;;;;5033842;28;19913;-82
2021/11/04 08:37:41;;;;;;;;;;;8.20;95.80;;;;;;5033701;28;19952;-83
2021/11/04 08:40:07;;;;;;;;;;;8.10;95.70;;;;;;5035194;28;20301;-83
2021/11/04 08:42:33;;;;;;;;;;;8.10;95.80;;;;;;5035091;28;19913;-83
2021/11/04 08:44:59;;;;;;;;;;;8.10;95.90;;;;;;5026560;28;19913;-82
2021/11/04 08:47:25;;;;;;;;;;;8.20;95.90;;;;;;5034418;28;20377;-81
2021/11/04 08:49:51;;;;;;;;;;;8.20;95.80;;;;;;5026718;28;20338;-82
2021/11/04 08:52:16;;;;;;;;;;;8.30;95.90;;;;;;5026751;28;20008;-83
2021/11/04 08:54:42;;;;;;;;;;;8.30;95.90;;;;;;5034460;28;20335;-82
2021/11/04 08:57:08;;;;;;;;;;;8.40;95.90;;;;;;5034124;28;19913;-83
2021/11/04 08:59:34;;;;;;;;;;;8.40;95.80;;;;;;5026745;28;19925;-82
2021/11/04 09:01:59;;;;;;;;;;;8.40;95.80;;;;;;5032358;28;19914;-81
2021/11/04 09:04:25;;;;;;;;;;;8.40;95.90;;;;;;5033999;28;19913;-82
2021/11/04 09:06:51;;;;;;;;;;;8.40;95.90;;;;;;5025870;28;19914;-82
2021/11/04 09:09:17;;;;;;;;;;;8.50;96.00;;;;;;5033789;28;20385;-82
2021/11/04 09:11:42;;;;;;;;;;;8.60;96.00;;;;;;5034224;28;20012;-83
2021/11/04 09:14:08;;;;;;;;;;;8.70;95.90;;;;;;5026214;28;19921;-82
2021/11/04 09:16:35;;;;;;;;;;;8.80;95.90;;;;;;5033557;28;19921;-81
2021/11/04 09:19:00;;;;;;;;;;;8.80;95.80;;;;;;5032136;28;19928;-81
2021/11/04 09:21:26;;;;;;;;;;;8.90;95.80;;;;;;5027802;28;19913;-83
2021/11/04 09:23:54;;;;;;;;;;;8.90;95.90;;;;;;5033764;28;19917;-82
2021/11/04 09:26:19;;;;;;;;;;;9.00;95.90;;;;;;5030573;28;19914;-83
2021/11/04 09:28:45;;;;;;;;;;;9.00;95.90;;;;;;5030143;28;19913;-83
2021/11/04 09:31:10;;;;;;;;;;;9.00;95.90;;;;;;5033298;28;20288;-83
2021/11/04 09:33:37;;;;;;;;;;;9.00;95.90;;;;;;5028374;28;20454;-83
2021/11/04 09:36:02;;;;;;;;;;;9.00;95.90;;;;;;5031575;28;19917;-82
2021/11/04 09:38:27;;;;;;;;;;;9.10;95.90;;;;;;5025504;28;19984;-82
2021/11/04 09:40:54;;;;;;;;;;;9.10;95.90;;;;;;5033868;28;19917;-82
2021/11/04 09:43:19;;;;;;;;;;;9.20;95.90;;;;;;5023295;28;19956;-82
2021/11/04 09:45:45;;;;;;;;;;;9.30;95.90;;;;;;5027436;28;20348;-82
2021/11/04 09:48:10;;;;;;;;;;;9.30;95.80;;;;;;5033354;28;19913;-82
2021/11/04 09:50:36;;;;;;;;;;;9.30;95.80;;;;;;5021795;28;19960;-82
2021/11/04 09:53:01;;;;;;;;;;;9.30;95.80;;;;;;5029386;28;19959;-83
2021/11/04 09:55:28;;;;;;;;;;;9.30;95.80;;;;;;5030862;28;19917;-82
2021/11/04 09:57:55;;;;;;;;;;;9.30;95.80;;;;;;5014187;28;20339;-83
2021/11/04 10:00:22;;;;;;;;;;;9.30;95.70;;;;;;5022421;28;19913;-84
2021/11/04 10:03:07;;;;;;;;;;;9.30;95.70;;;;;;5034111;28;19913;-87
2021/11/04 10:05:41;;;;;;;;;;;9.20;95.70;;;;;;5026308;28;19913;-83
2021/11/04 10:08:06;;;;;;;;;;;9.10;95.80;;;;;;5019665;28;20059;-83
2021/11/04 10:10:32;;;;;;;;;;;9.10;95.80;;;;;;5014935;28;19976;-83
2021/11/04 10:13:02;;;;;;;;;;;9.10;95.90;;;;;;5014728;28;20366;-85
2021/11/04 10:15:28;;;;;;;;;;;9.20;95.90;;;;;;5014634;28;19956;-84
2021/11/04 10:18:08;;;;;;;;;;;9.20;95.80;;;;;;5014409;28;20271;-83
2021/11/04 10:20:33;;;;;;;;;;;9.20;95.90;;;;;;5014337;28;19917;-82
2021/11/04 10:23:06;;;;;;;;;;;9.30;95.90;;;;;;5014391;28;19956;-80
2021/11/04 10:25:32;;;;;;;;;;;9.40;95.90;;;;;;5014448;28;20365;-85
2021/11/04 10:27:59;;;;;;;;;;;9.40;95.80;;;;;;5014467;28;19910;-90
2021/11/04 10:30:51;;;;;;;;;;;9.40;95.80;;;;;;5015146;28;19916;-90
2021/11/04 10:33:21;;;;;;;;;;;9.40;95.80;;;;;;5013144;28;19910;-88
2021/11/04 10:35:58;;;;;;;;;;;9.40;95.90;;;;;;5014844;28;19940;-89
2021/11/04 10:38:29;;;;;;;;;;;9.50;95.90;;;;;;5014867;28;20007;-89
2021/11/04 10:40:54;;;;;;;;;;;9.60;95.90;;;;;;5014850;28;19909;-89
2021/11/04 10:43:19;;;;;;;;;;;9.60;95.80;;;;;;5014625;28;19910;-88
2021/11/04 10:45:45;;;;;;;;;;;9.60;95.70;;;;;;5014731;28;20004;-89
2021/11/04 10:48:23;;;;;;;;;;;9.60;95.60;;;;;;5014993;28;19993;-91
2021/11/04 10:50:49;;;;;;;;;;;9.50;95.60;;;;;;5013860;28;20274;-92
2021/11/04 10:53:21;;;;;;;;;;;9.40;95.70;;;;;;5014754;28;19910;-89
2021/11/04 10:55:50;;;;;;;;;;;9.40;95.70;;;;;;5014700;28;19963;-89
2021/11/04 10:58:25;;;;;;;;;;;9.50;95.80;;;;;;5014331;28;19936;-89
2021/11/04 11:00:51;;;;;;;;;;;9.50;95.80;;;;;;5014670;28;19913;-90
2021/11/04 11:03:16;;;;;;;;;;;9.60;95.80;;;;;;5014871;28;19909;-87
2021/11/04 11:05:43;;;;;;;;;;;9.60;95.70;;;;;;5014811;28;19914;-87
2021/11/04 11:08:09;;;;;;;;;;;9.60;95.70;;;;;;5014479;28;19909;-84
2021/11/04 11:10:35;;;;;;;;;;;9.70;95.80;;;;;;5014130;28;19910;-85
2021/11/04 11:13:02;;;;;;;;;;;9.70;95.70;;;;;;5014745;28;19910;-89
2021/11/04 11:15:28;;;;;;;;;;;9.80;95.70;;;;;;5014557;28;19956;-88
2021/11/04 11:17:55;;;;;;;;;;;9.80;95.70;;;;;;5014369;28;19976;-86
2021/11/04 11:20:21;;;;;;;;;;;9.90;95.70;;;;;;5014239;28;20428;-82
2021/11/04 11:22:46;;;;;;;;;;;9.90;95.60;;;;;;5014608;28;19909;-91
2021/11/04 11:25:12;;;;;;;;;;;9.90;95.70;;;;;;5014299;28;20373;-88
2021/11/04 11:27:38;;;;;;;;;;;9.90;95.70;;;;;;5017914;28;19913;-90
2021/11/04 11:30:10;;;;;;;;;;;10.00;95.60;;;;;;5018128;28;19959;-88
2021/11/04 11:32:35;;;;;;;;;;;10.00;95.60;;;;;;5018768;28;20281;-93
2021/11/04 11:35:15;;;;;;;;;;;10.00;95.60;;;;;;5018487;28;19937;-85
2021/11/04 11:37:58;;;;;;;;;;;10.00;95.60;;;;;;5018479;28;19948;-91
2021/11/04 11:40:24;;;;;;;;;;;10.00;95.60;;;;;;5018175;28;20404;-93
2021/11/04 11:42:53;;;;;;;;;;;10.00;95.60;;;;;;5018829;28;20358;-85
2021/11/04 11:45:19;;;;;;;;;;;9.90;95.60;;;;;;5017810;28;19910;-90
2021/11/04 11:47:46;;;;;;;;;;;9.90;95.70;;;;;;5017797;28;19917;-91
2021/11/04 11:50:15;;;;;;;;;;;10.00;95.60;;;;;;5017947;28;19917;-90
2021/11/04 11:52:40;;;;;;;;;;;10.00;95.60;;;;;;5017891;28;19940;-89
2021/11/04 11:55:07;;;;;;;;;;;10.00;95.70;;;;;;5017156;28;19910;-89
2021/11/04 11:57:33;;;;;;;;;;;10.00;95.60;;;;;;5017444;28;19979;-85
2021/11/04 11:59:58;;;;;;;;;;;10.10;95.60;;;;;;5016621;28;20366;-86
2021/11/04 12:02:35;;;;;;;;;;;10.00;95.50;;;;;;5017722;28;19917;-87
2021/11/04 12:05:20;;;;;;;;;;;10.00;95.60;;;;;;5017621;28;19910;-88
2021/11/04 12:07:45;;;;;;;;;;;10.10;95.60;;;;;;5017643;28;19913;-89
2021/11/04 12:10:29;;;;;;;;;;;10.20;95.60;;;;;;5018468;28;20077;-87
2021/11/04 12:12:54;;;;;;;;;;;10.20;95.60;;;;;;5017194;28;19913;-87
2021/11/04 12:15:20;;;;;;;;;;;10.30;95.60;;;;;;5017316;28;19915;-87
2021/11/04 12:18:04;;;;;;;;;;;10.20;95.50;;;;;;5017037;28;19921;-87
2021/11/04 12:20:29;;;;;;;;;;;10.30;95.60;;;;;;5017243;28;19996;-89
2021/11/04 12:22:55;;;;;;;;;;;10.30;95.60;;;;;;5016894;28;20374;-90
2021/11/04 12:25:20;;;;;;;;;;;10.30;95.60;;;;;;5017192;28;19910;-89
2021/11/04 12:27:46;;;;;;;;;;;10.30;95.60;;;;;;5017479;28;20012;-88
2021/11/04 12:30:20;;;;;;;;;;;10.30;95.70;;;;;;5016953;28;19909;-87
2021/11/04 12:32:58;;;;;;;;;;;10.20;95.70;;;;;;5016868;28;19909;-89
2021/11/04 12:35:24;;;;;;;;;;;10.20;95.90;;;;;;5016610;28;19916;-87
2021/11/04 12:37:50;;;;;;;;;;;10.20;96.00;;;;;;5015134;28;19909;-88
2021/11/04 12:40:15;;;;;;;;;;;10.30;96.00;;;;;;5016798;28;20000;-87
2021/11/04 12:42:45;;;;;;;;;;;10.40;95.90;;;;;;5017068;28;19999;-89
2021/11/04 12:45:11;;;;;;;;;;;10.50;95.90;;;;;;5015830;28;19917;-88
2021/11/04 12:47:36;;;;;;;;;;;10.50;95.80;;;;;;5016727;28;20270;-86
2021/11/04 12:50:02;;;;;;;;;;;10.60;95.80;;;;;;5016648;28;19913;-88
2021/11/04 12:52:28;;;;;;;;;;;10.60;95.80;;;;;;5015060;28;19910;-89
2021/11/04 12:54:56;;;;;;;;;;;10.60;95.70;;;;;;5016355;28;20007;-87
2021/11/04 12:57:25;;;;;;;;;;;10.70;95.70;;;;;;5016975;28;19909;-93
2021/11/04 13:00:03;;;;;;;;;;;10.70;95.60;;;;;;5017480;28;19949;-92
2021/11/04 13:02:35;;;;;;;;;;;10.70;95.60;;;;;;5017778;28;19913;-92
2021/11/04 13:05:05;;;;;;;;;;;10.70;95.60;;;;;;5016166;28;21270;-90
2021/11/04 13:07:32;;;;;;;;;;;10.70;95.60;;;;;;5016674;28;19916;-92
2021/11/04 13:09:59;;;;;;;;;;;10.70;95.60;;;;;;5016455;28;19910;-87
2021/11/04 13:12:26;;;;;;;;;;;10.70;95.60;;;;;;5016550;28;19934;-92
2021/11/04 13:14:51;;;;;;;;;;;10.60;95.50;;;;;;5016726;28;20428;-88
2021/11/04 13:17:16;;;;;;;;;;;10.60;95.60;;;;;;5016379;28;19921;-87
2021/11/04 13:20:01;;;;;;;;;;;10.60;95.60;;;;;;5016324;28;20473;-87
2021/11/04 13:22:26;;;;;;;;;;;10.60;96.00;;;;;;5015965;28;20358;-85
2021/11/04 13:24:53;;;;;;;;;;;10.70;95.80;;;;;;5016001;28;19924;-90
2021/11/04 13:27:19;;;;;;;;;;;10.80;95.80;;;;;;5015991;28;19917;-86
2021/11/04 13:29:48;;;;;;;;;;;10.90;95.80;;;;;;5016305;28;19909;-90
2021/11/04 13:32:13;;;;;;;;;;;10.90;95.70;;;;;;5016198;28;19913;-86
2021/11/04 13:34:39;;;;;;;;;;;11.00;95.70;;;;;;5015896;28;19910;-87
2021/11/04 13:37:18;;;;;;;;;;;11.10;95.70;;;;;;5015671;28;19910;-86
2021/11/04 13:39:44;;;;;;;;;;;11.20;95.70;;;;;;5015619;28;19943;-90
2021/11/04 13:42:20;;;;;;;;;;;11.40;95.70;;;;;;5015534;28;19909;-87
2021/11/04 13:44:45;;;;;;;;;;;11.40;95.60;;;;;;5015487;28;19955;-85
2021/11/04 13:47:11;;;;;;;;;;;11.50;95.50;;;;;;5015064;28;19917;-83
2021/11/04 13:49:36;;;;;;;;;;;11.40;95.40;;;;;;5014659;28;19910;-84
2021/11/04 13:52:02;;;;;;;;;;;11.50;95.60;;;;;;5014459;28;19924;-83
2021/11/04 13:54:28;;;;;;;;;;;11.70;95.70;;;;;;5014554;28;19910;-81
2021/11/04 13:56:57;;;;;;;;;;;11.80;95.40;;;;;;5014623;28;20340;-81
2021/11/04 13:59:45;;;;;;;;;;;11.90;95.20;;;;;;5014801;28;20338;-87
2021/11/04 14:02:12;;;;;;;;;;;11.90;95.00;;;;;;5009676;28;19936;-90
2021/11/04 14:04:56;;;;;;;;;;;11.90;95.10;;;;;;5015326;28;19963;-85
2021/11/04 14:07:28;;;;;;;;;;;11.80;95.20;;;;;;5015221;28;20259;-84
2021/11/04 14:09:55;;;;;;;;;;;11.80;95.20;;;;;;5014864;28;20005;-89
2021/11/04 14:12:26;;;;;;;;;;;11.70;95.20;;;;;;5015294;28;19910;-86
2021/11/04 14:14:51;;;;;;;;;;;11.60;95.30;;;;;;5014734;28;19916;-88
2021/11/04 14:17:23;;;;;;;;;;;11.40;95.40;;;;;;5015627;28;20297;-90
2021/11/04 14:19:50;;;;;;;;;;;11.40;95.50;;;;;;5015130;28;20012;-87
2021/11/04 14:22:15;;;;;;;;;;;11.30;95.50;;;;;;5015042;28;20004;-90
2021/11/04 14:24:41;;;;;;;;;;;11.20;95.50;;;;;;5015175;28;19949;-86
2021/11/04 14:27:07;;;;;;;;;;;11.10;95.60;;;;;;5014790;28;19964;-87